createdAt,value
2023-04-04T00:01:05.444Z,3.70
2023-04-04T00:03:33.446Z,3.70
2023-04-04T00:06:02.934Z,3.70
2023-04-04T00:08:30.839Z,3.60
2023-04-04T00:10:59.528Z,3.60
2023-04-04T00:13:27.793Z,3.70
2023-04-04T00:15:55.910Z,3.70
2023-04-04T00:18:23.813Z,3.70
2023-04-04T00:20:51.749Z,3.70
2023-04-04T00:23:21.071Z,3.60
2023-04-04T00:25:51.969Z,3.60
2023-04-04T00:28:20.546Z,3.70
2023-04-04T00:30:48.689Z,3.70
2023-04-04T00:33:16.701Z,3.70
2023-04-04T00:35:44.624Z,3.70
2023-04-04T00:38:12.750Z,3.60
2023-04-04T00:40:44.108Z,3.60
2023-04-04T00:43:12.275Z,3.60
2023-04-04T00:45:40.297Z,3.50
2023-04-04T00:48:08.223Z,3.50
2023-04-04T00:50:36.248Z,3.60
2023-04-04T00:53:04.144Z,3.50
2023-04-04T00:55:32.554Z,3.50
2023-04-04T00:58:02.106Z,3.40
2023-04-04T01:00:30.352Z,3.40
2023-04-04T01:02:58.446Z,3.40
2023-04-04T01:05:26.497Z,3.40
2023-04-04T01:07:54.458Z,3.30
2023-04-04T01:10:22.343Z,3.40
2023-04-04T01:12:50.660Z,3.30
2023-04-04T01:15:19.903Z,3.30
2023-04-04T01:17:48.817Z,3.30
2023-04-04T01:20:20.627Z,3.30
2023-04-04T01:22:51.256Z,3.30
2023-04-04T01:25:19.989Z,3.30
2023-04-04T01:27:49.641Z,3.30
2023-04-04T01:30:18.591Z,3.30
2023-04-04T01:32:48.998Z,3.20
2023-04-04T01:35:26.314Z,3.20
2023-04-04T01:37:59.445Z,3.30
2023-04-04T01:40:35.004Z,3.20
2023-04-04T01:43:04.854Z,3.10
2023-04-04T01:45:33.163Z,3.10
2023-04-04T01:48:01.411Z,3.10
2023-04-04T01:50:29.495Z,3.10
2023-04-04T01:52:57.453Z,3.10
2023-04-04T01:55:26.046Z,3.00
2023-04-04T01:57:53.865Z,3.00
2023-04-04T02:00:23.110Z,3.00
2023-04-04T02:02:51.409Z,3.10
2023-04-04T02:05:19.393Z,3.00
2023-04-04T02:07:50.525Z,3.00
2023-04-04T02:10:18.767Z,3.00
2023-04-04T02:12:46.863Z,3.00
2023-04-04T02:15:14.751Z,2.90
2023-04-04T02:17:48.563Z,2.90
2023-04-04T02:20:19.418Z,2.90
2023-04-04T02:22:53.848Z,2.90
2023-04-04T02:25:22.174Z,2.90
2023-04-04T02:27:50.055Z,2.90
2023-04-04T02:30:19.506Z,2.90
2023-04-04T02:32:50.281Z,2.80
2023-04-04T02:35:18.388Z,2.80
2023-04-04T02:37:47.954Z,2.80
2023-04-04T02:40:16.272Z,2.80
2023-04-04T02:42:44.903Z,2.80
2023-04-04T02:45:14.488Z,2.70
2023-04-04T02:47:43.363Z,2.70
2023-04-04T02:50:13.060Z,2.70
2023-04-04T02:52:41.022Z,2.70
2023-04-04T02:55:10.453Z,2.70
2023-04-04T02:57:38.710Z,2.60
2023-04-04T03:00:07.859Z,2.60
2023-04-04T03:02:35.814Z,2.60
2023-04-04T03:05:04.001Z,2.60
2023-04-04T03:07:33.372Z,2.60
2023-04-04T03:10:01.502Z,2.50
2023-04-04T03:12:29.392Z,2.50
2023-04-04T03:14:57.477Z,2.50
2023-04-04T03:17:26.810Z,2.50
2023-04-04T03:19:54.778Z,2.40
2023-04-04T03:22:22.788Z,2.40
2023-04-04T03:24:52.174Z,2.40
2023-04-04T03:27:20.147Z,2.40
2023-04-04T03:29:47.987Z,2.30
2023-04-04T03:32:15.909Z,2.30
2023-04-04T03:34:44.685Z,2.30
2023-04-04T03:37:12.546Z,2.40
2023-04-04T03:39:40.741Z,2.30
2023-04-04T03:42:10.030Z,2.40
2023-04-04T03:44:41.017Z,2.40
2023-04-04T03:47:08.955Z,2.30
2023-04-04T03:49:36.908Z,2.40
2023-04-04T03:52:05.147Z,2.30
2023-04-04T03:54:33.140Z,2.30
2023-04-04T03:57:01.317Z,2.30
2023-04-04T03:59:30.753Z,2.30
2023-04-04T04:01:58.837Z,2.30
2023-04-04T04:04:26.758Z,2.30
2023-04-04T04:06:54.839Z,2.10
2023-04-04T04:09:22.786Z,2.10
2023-04-04T04:11:50.696Z,1.90
2023-04-04T04:14:18.878Z,1.90
2023-04-04T04:16:48.137Z,1.70
2023-04-04T04:19:16.201Z,1.70
2023-04-04T04:21:44.752Z,1.60
2023-04-04T04:24:12.648Z,1.50
2023-04-04T04:26:40.614Z,1.40
2023-04-04T04:29:08.562Z,1.40
2023-04-04T04:31:36.527Z,1.30
2023-04-04T04:34:08.633Z,1.30
2023-04-04T04:36:36.879Z,1.30
2023-04-04T04:39:04.918Z,1.30
2023-04-04T04:41:32.820Z,1.40
2023-04-04T04:44:00.646Z,1.50
2023-04-04T04:46:28.624Z,1.50
2023-04-04T04:48:56.649Z,1.50
2023-04-04T04:51:26.197Z,1.60
2023-04-04T04:53:54.284Z,1.60
2023-04-04T04:56:24.215Z,1.60
2023-04-04T04:58:52.237Z,1.70
2023-04-04T05:01:22.560Z,1.80
2023-04-04T05:03:52.151Z,1.90
2023-04-04T05:06:21.507Z,1.90
2023-04-04T05:08:50.838Z,1.90
2023-04-04T05:11:18.870Z,1.90
2023-04-04T05:13:47.018Z,1.90
2023-04-04T05:16:15.030Z,1.90
2023-04-04T05:18:43.007Z,1.90
2023-04-04T05:21:11.131Z,1.90
2023-04-04T05:23:39.293Z,1.90
2023-04-04T05:26:08.447Z,2.00
2023-04-04T05:28:36.315Z,2.10
2023-04-04T05:31:04.308Z,2.00
2023-04-04T05:33:32.256Z,1.90
2023-04-04T05:36:01.174Z,1.90
2023-04-04T05:38:29.573Z,2.00
2023-04-04T05:40:57.554Z,2.10
2023-04-04T05:43:27.137Z,2.20
2023-04-04T05:45:54.998Z,2.20
2023-04-04T05:48:22.852Z,2.30
2023-04-04T05:50:51.023Z,2.30
2023-04-04T05:53:18.970Z,2.30
2023-04-04T05:55:46.871Z,2.30
2023-04-04T05:58:14.776Z,2.30
2023-04-04T06:00:44.084Z,2.50
2023-04-04T06:03:12.869Z,2.50
2023-04-04T06:05:40.957Z,2.50
2023-04-04T06:08:08.809Z,2.60
2023-04-04T06:10:36.712Z,2.50
2023-04-04T06:13:04.582Z,2.60
2023-04-04T06:15:32.581Z,2.60
2023-04-04T06:18:01.882Z,2.70
2023-04-04T06:20:29.835Z,2.70
2023-04-04T06:22:57.746Z,2.80
2023-04-04T06:25:27.083Z,2.80
2023-04-04T06:27:54.958Z,2.90
2023-04-04T06:30:23.075Z,3.00
2023-04-04T06:32:50.996Z,3.00
2023-04-04T06:35:20.626Z,3.00
2023-04-04T06:37:48.908Z,3.10
2023-04-04T06:40:17.185Z,3.10
2023-04-04T06:42:50.466Z,3.20
2023-04-04T06:45:18.622Z,3.30
2023-04-04T06:47:47.161Z,3.30
2023-04-04T06:50:15.620Z,3.40
2023-04-04T06:52:45.038Z,3.40
2023-04-04T06:55:13.103Z,3.50
2023-04-04T06:57:41.274Z,3.50
2023-04-04T07:00:10.273Z,3.60
2023-04-04T07:02:38.494Z,3.70
2023-04-04T07:05:07.499Z,3.70
2023-04-04T07:07:35.493Z,3.80
2023-04-04T07:10:05.285Z,3.80
2023-04-04T07:12:33.242Z,3.90
2023-04-04T07:15:01.262Z,3.90
2023-04-04T07:17:29.230Z,3.90
2023-04-04T07:19:57.126Z,4.00
2023-04-04T07:22:25.046Z,4.10
2023-04-04T07:24:53.072Z,4.20
2023-04-04T07:27:22.370Z,4.20
2023-04-04T07:29:50.525Z,4.20
2023-04-04T07:32:18.431Z,4.30
2023-04-04T07:34:47.212Z,4.40
2023-04-04T07:37:15.287Z,4.40
2023-04-04T07:39:43.662Z,4.50
2023-04-04T07:42:11.815Z,4.60
2023-04-04T07:44:41.296Z,4.80
2023-04-04T07:47:10.900Z,4.80
2023-04-04T07:49:38.822Z,4.90
2023-04-04T07:52:07.229Z,5.00
2023-04-04T07:54:35.180Z,5.00
2023-04-04T07:57:05.420Z,5.00
2023-04-04T07:59:33.513Z,5.20
2023-04-04T08:02:02.848Z,5.40
2023-04-04T08:04:30.975Z,5.40
2023-04-04T08:06:58.948Z,5.50
2023-04-04T08:09:31.230Z,5.50
2023-04-04T08:11:59.197Z,5.50
2023-04-04T08:14:27.591Z,5.40
2023-04-04T08:16:55.547Z,5.50
2023-04-04T08:19:24.940Z,5.60
2023-04-04T08:21:52.921Z,5.70
2023-04-04T08:24:22.542Z,5.80
2023-04-04T08:27:01.826Z,5.80
2023-04-04T08:29:33.071Z,5.80
2023-04-04T08:32:01.560Z,5.90
2023-04-04T08:34:31.047Z,5.80
2023-04-04T08:36:59.917Z,5.90
2023-04-04T08:39:28.290Z,5.90
2023-04-04T08:42:02.612Z,6.10
2023-04-04T08:44:31.634Z,6.10
2023-04-04T08:47:01.229Z,6.40
2023-04-04T08:49:33.470Z,6.50
2023-04-04T08:52:03.790Z,6.60
2023-04-04T08:54:32.874Z,6.70
2023-04-04T08:57:01.809Z,6.70
2023-04-04T08:59:29.901Z,6.80
2023-04-04T09:02:05.511Z,6.90
2023-04-04T09:04:34.915Z,7.00
2023-04-04T09:07:05.178Z,6.90
2023-04-04T09:09:34.378Z,7.00
2023-04-04T09:12:03.446Z,7.10
2023-04-04T09:14:31.852Z,7.10
2023-04-04T09:16:59.995Z,7.10
2023-04-04T09:19:28.344Z,7.10
2023-04-04T09:21:57.966Z,7.10
2023-04-04T09:24:26.470Z,7.10
2023-04-04T09:26:55.030Z,7.10
2023-04-04T09:29:23.643Z,7.10
2023-04-04T09:31:52.204Z,7.10
2023-04-04T09:34:21.162Z,7.20
2023-04-04T09:36:49.233Z,7.20
2023-04-04T09:39:20.874Z,7.30
2023-04-04T09:41:49.347Z,7.40
2023-04-04T09:44:18.338Z,7.50
2023-04-04T09:46:46.350Z,7.60
2023-04-04T09:49:20.728Z,7.50
2023-04-04T09:51:50.047Z,7.40
2023-04-04T09:54:29.494Z,7.20
2023-04-04T09:56:58.364Z,7.20
2023-04-04T09:59:26.476Z,7.20
2023-04-04T10:01:56.415Z,7.40
2023-04-04T10:04:27.187Z,7.40
2023-04-04T10:06:55.755Z,7.50
2023-04-04T10:09:25.330Z,7.60
2023-04-04T10:12:09.452Z,7.80
2023-04-04T10:14:37.934Z,7.70
2023-04-04T10:17:10.471Z,7.60
2023-04-04T10:19:39.437Z,7.70
2023-04-04T10:22:07.651Z,7.80
2023-04-04T10:24:37.192Z,7.90
2023-04-04T10:27:05.026Z,8.00
2023-04-04T10:29:33.824Z,8.10
2023-04-04T10:32:06.865Z,8.20
2023-04-04T10:34:48.489Z,8.30
2023-04-04T10:37:20.577Z,8.40
2023-04-04T10:39:54.742Z,8.50
2023-04-04T10:42:23.677Z,8.70
2023-04-04T10:44:52.155Z,8.60
2023-04-04T10:47:23.191Z,8.80
2023-04-04T10:49:52.550Z,8.80
2023-04-04T10:52:22.747Z,8.90
2023-04-04T10:54:56.019Z,8.80
2023-04-04T10:57:25.103Z,8.40
2023-04-04T11:00:02.609Z,8.40
2023-04-04T11:02:48.476Z,8.40
2023-04-04T11:05:24.971Z,8.60
2023-04-04T11:08:08.271Z,8.90
2023-04-04T11:10:39.714Z,9.40
2023-04-04T11:13:13.817Z,9.90
2023-04-04T11:15:48.266Z,10.90
2023-04-04T11:18:30.674Z,12.90
2023-04-04T11:21:03.257Z,15.00
2023-04-04T11:24:00.451Z,17.30
2023-04-04T11:26:37.531Z,17.80
2023-04-04T11:29:08.297Z,18.90
2023-04-04T11:31:41.091Z,19.40
2023-04-04T11:34:10.240Z,20.00
2023-04-04T11:36:56.038Z,19.60
2023-04-04T11:39:27.202Z,19.20
2023-04-04T11:41:58.718Z,19.80
2023-04-04T11:44:30.645Z,20.90
2023-04-04T11:47:04.109Z,22.10
2023-04-04T11:49:35.368Z,23.10
2023-04-04T11:52:06.742Z,23.00
2023-04-04T11:54:35.220Z,23.00
2023-04-04T11:57:06.772Z,23.40
2023-04-04T11:59:34.922Z,23.40
2023-04-04T12:02:03.301Z,23.10
2023-04-04T12:04:31.390Z,23.00
2023-04-04T12:07:00.295Z,23.60
2023-04-04T12:09:28.380Z,23.50
2023-04-04T12:11:58.030Z,23.10
2023-04-04T12:14:28.116Z,23.10
2023-04-04T12:16:57.554Z,23.60
2023-04-04T12:19:25.954Z,24.50
2023-04-04T12:21:55.015Z,23.00
2023-04-04T12:24:23.041Z,22.20
2023-04-04T12:26:53.356Z,22.10
2023-04-04T12:29:23.734Z,22.60
2023-04-04T12:31:54.563Z,21.20
2023-04-04T12:34:24.362Z,20.50
2023-04-04T12:36:54.091Z,20.70
2023-04-04T12:39:23.608Z,21.00
2023-04-04T12:41:54.633Z,21.50
2023-04-04T12:44:31.190Z,22.40
2023-04-04T12:47:02.271Z,23.10
2023-04-04T12:49:31.480Z,23.20
2023-04-04T12:52:03.780Z,23.80
2023-04-04T12:54:33.204Z,24.00
2023-04-04T12:57:04.502Z,24.20
2023-04-04T12:59:34.469Z,24.60
2023-04-04T13:02:05.295Z,24.90
2023-04-04T13:04:33.582Z,24.60
2023-04-04T13:07:02.016Z,23.90
2023-04-04T13:09:30.117Z,23.50
2023-04-04T13:11:59.780Z,23.70
2023-04-04T13:14:29.648Z,24.00
2023-04-04T13:17:08.053Z,23.60
2023-04-04T13:19:36.290Z,23.70
2023-04-04T13:22:04.561Z,24.20
2023-04-04T13:24:32.476Z,25.00
2023-04-04T13:27:00.898Z,24.70
2023-04-04T13:29:28.798Z,24.60
2023-04-04T13:31:57.131Z,24.00
2023-04-04T13:34:27.807Z,22.80
2023-04-04T13:36:56.416Z,20.80
2023-04-04T13:39:24.327Z,17.50
2023-04-04T13:41:52.480Z,15.60
2023-04-04T13:44:20.467Z,14.80
2023-04-04T13:46:48.415Z,14.30
2023-04-04T13:49:16.517Z,13.40
2023-04-04T13:51:45.836Z,12.60
2023-04-04T13:54:20.631Z,11.90
2023-04-04T13:56:48.848Z,11.30
2023-04-04T13:59:20.629Z,11.20
2023-04-04T14:01:50.872Z,11.10
2023-04-04T14:04:24.117Z,11.10
2023-04-04T14:07:06.516Z,11.00
2023-04-04T14:09:37.702Z,10.70
2023-04-04T14:12:06.282Z,10.50
2023-04-04T14:14:35.740Z,10.50
2023-04-04T14:17:09.164Z,10.70
2023-04-04T14:19:42.235Z,10.70
2023-04-04T14:22:13.947Z,10.70
2023-04-04T14:24:46.189Z,10.80
2023-04-04T14:27:17.261Z,10.90
2023-04-04T14:29:50.091Z,10.70
2023-04-04T14:32:24.480Z,10.60
2023-04-04T14:35:00.222Z,10.40
2023-04-04T14:37:37.941Z,10.40
2023-04-04T14:40:07.804Z,10.30
2023-04-04T14:42:39.766Z,10.30
2023-04-04T14:45:16.804Z,10.30
2023-04-04T14:47:50.469Z,10.10
2023-04-04T14:50:30.082Z,10.00
2023-04-04T14:53:03.284Z,10.00
2023-04-04T14:55:37.888Z,10.00
2023-04-04T14:58:07.104Z,10.10
2023-04-04T15:00:42.475Z,10.10
2023-04-04T15:03:23.996Z,10.20
2023-04-04T15:06:12.559Z,10.30
2023-04-04T15:08:46.914Z,10.30
2023-04-04T15:11:16.714Z,10.40
2023-04-04T15:13:45.232Z,10.30
2023-04-04T15:16:13.459Z,10.30
2023-04-04T15:18:42.854Z,10.30
2023-04-04T15:21:11.597Z,10.30
2023-04-04T15:23:45.660Z,10.40
2023-04-04T15:26:18.806Z,10.50
2023-04-04T15:28:51.188Z,10.50
2023-04-04T15:31:38.537Z,10.30
2023-04-04T15:34:16.617Z,10.20
2023-04-04T15:36:49.360Z,10.20
2023-04-04T15:39:20.850Z,10.30
2023-04-04T15:41:56.860Z,10.30
2023-04-04T15:44:25.166Z,10.40
2023-04-04T15:47:00.102Z,10.50
2023-04-04T15:49:29.087Z,10.60
2023-04-04T15:52:04.652Z,10.60
2023-04-04T15:54:35.211Z,10.60
2023-04-04T15:57:03.480Z,10.70
2023-04-04T15:59:32.023Z,10.70
2023-04-04T16:02:00.643Z,10.70
2023-04-04T16:04:28.839Z,10.50
2023-04-04T16:07:02.404Z,10.40
2023-04-04T16:09:38.345Z,10.30
2023-04-04T16:12:08.814Z,10.10
2023-04-04T16:14:36.744Z,10.00
2023-04-04T16:17:04.652Z,9.90
2023-04-04T16:19:32.582Z,9.90
2023-04-04T16:22:00.551Z,10.00
2023-04-04T16:24:29.402Z,10.10
2023-04-04T16:26:58.765Z,10.10
2023-04-04T16:29:27.261Z,10.00
2023-04-04T16:31:56.019Z,10.10
2023-04-04T16:34:23.973Z,10.10
2023-04-04T16:36:51.909Z,10.20
2023-04-04T16:39:20.226Z,10.20
2023-04-04T16:41:48.122Z,10.00
2023-04-04T16:44:17.510Z,10.00
2023-04-04T16:46:47.181Z,10.10
2023-04-04T16:49:16.322Z,10.10
2023-04-04T16:51:44.290Z,10.00
2023-04-04T16:54:13.057Z,10.00
2023-04-04T16:56:41.913Z,10.00
2023-04-04T16:59:09.883Z,10.00
2023-04-04T17:01:39.986Z,10.00
2023-04-04T17:04:08.365Z,10.10
2023-04-04T17:06:36.265Z,10.10
2023-04-04T17:09:04.293Z,10.10
2023-04-04T17:11:32.222Z,10.10
2023-04-04T17:14:00.189Z,10.10
2023-04-04T17:16:28.404Z,10.00
2023-04-04T17:18:57.770Z,10.00
2023-04-04T17:21:26.237Z,10.00
2023-04-04T17:23:54.136Z,10.00
2023-04-04T17:26:22.271Z,10.00
2023-04-04T17:28:50.496Z,9.90
2023-04-04T17:31:18.588Z,9.90
2023-04-04T17:33:46.685Z,9.80
2023-04-04T17:36:16.270Z,9.80
2023-04-04T17:38:44.177Z,9.80
2023-04-04T17:41:12.213Z,9.70
2023-04-04T17:43:40.207Z,9.70
2023-04-04T17:46:09.347Z,9.70
2023-04-04T17:48:37.603Z,9.80
2023-04-04T17:51:08.301Z,9.70
2023-04-04T17:53:37.869Z,9.60
2023-04-04T17:56:06.150Z,9.50
2023-04-04T17:58:35.354Z,9.50
2023-04-04T18:01:04.153Z,9.50
2023-04-04T18:03:32.996Z,9.40
2023-04-04T18:06:01.275Z,9.40
2023-04-04T18:08:29.155Z,9.40
2023-04-04T18:10:59.877Z,9.30
2023-04-04T18:13:27.790Z,9.20
2023-04-04T18:15:55.739Z,9.20
2023-04-04T18:18:24.129Z,9.10
2023-04-04T18:20:52.705Z,8.90
2023-04-04T18:23:20.817Z,8.80
2023-04-04T18:25:48.667Z,8.70
2023-04-04T18:28:18.309Z,8.60
2023-04-04T18:30:46.261Z,8.50
2023-04-04T18:33:14.334Z,8.30
2023-04-04T18:35:42.301Z,8.20
2023-04-04T18:38:10.362Z,8.10
2023-04-04T18:40:38.713Z,8.00
2023-04-04T18:43:06.973Z,7.90
2023-04-04T18:45:40.397Z,7.70
2023-04-04T18:48:09.341Z,7.60
2023-04-04T18:50:37.431Z,7.60
2023-04-04T18:53:05.365Z,7.60
2023-04-04T18:55:33.293Z,7.50
2023-04-04T18:58:01.241Z,7.40
2023-04-04T19:00:29.124Z,7.40
2023-04-04T19:02:58.359Z,7.40
2023-04-04T19:05:26.730Z,7.40
2023-04-04T19:07:55.173Z,7.40
2023-04-04T19:10:23.599Z,7.30
2023-04-04T19:12:51.521Z,7.30
2023-04-04T19:15:19.591Z,7.30
2023-04-04T19:17:47.650Z,7.20
2023-04-04T19:20:17.043Z,7.20
2023-04-04T19:22:44.891Z,7.10
2023-04-04T19:25:12.716Z,7.00
2023-04-04T19:27:40.738Z,6.90
2023-04-04T19:30:34.372Z,6.80
2023-04-04T19:33:03.429Z,6.70
2023-04-04T19:35:53.070Z,6.60
2023-04-04T19:38:24.865Z,6.60
2023-04-04T19:40:55.794Z,6.50
2023-04-04T19:43:24.328Z,6.40
2023-04-04T19:45:53.498Z,6.40
2023-04-04T19:48:43.630Z,6.30
2023-04-04T19:51:51.201Z,6.20
2023-04-04T19:54:24.894Z,6.10
2023-04-04T19:57:02.709Z,6.00
2023-04-04T19:59:59.015Z,6.00
2023-04-04T20:02:52.007Z,5.90
2023-04-04T20:05:55.940Z,5.90
2023-04-04T20:08:25.793Z,5.90
2023-04-04T20:10:57.526Z,5.80
2023-04-04T20:13:25.569Z,5.80
2023-04-04T20:16:03.422Z,5.80
2023-04-04T20:18:32.927Z,5.70
2023-04-04T20:21:13.372Z,5.70
2023-04-04T20:23:49.322Z,5.70
2023-04-04T20:26:54.325Z,5.70
2023-04-04T20:29:25.430Z,5.70
2023-04-04T20:31:55.152Z,5.70
2023-04-04T20:34:33.376Z,5.70
2023-04-04T20:37:02.964Z,5.70
2023-04-04T20:39:45.521Z,5.80
2023-04-04T20:42:33.866Z,5.90
2023-04-04T20:45:13.709Z,5.90
2023-04-04T20:47:46.338Z,5.90
2023-04-04T20:50:45.134Z,6.00
2023-04-04T20:53:18.985Z,6.10
2023-04-04T20:55:48.345Z,6.20
2023-04-04T20:58:28.014Z,6.20
2023-04-04T21:00:57.807Z,6.20
2023-04-04T21:03:35.227Z,6.20
2023-04-04T21:06:10.294Z,6.20
2023-04-04T21:08:42.106Z,6.20
2023-04-04T21:11:12.158Z,6.20
2023-04-04T21:13:41.685Z,6.20
2023-04-04T21:16:11.886Z,6.10
2023-04-04T21:18:41.490Z,6.10
2023-04-04T21:21:11.888Z,6.00
2023-04-04T21:23:49.048Z,5.90
2023-04-04T21:26:31.749Z,5.90
2023-04-04T21:29:00.749Z,5.90
2023-04-04T21:31:35.042Z,5.90
2023-04-04T21:34:09.089Z,5.90
2023-04-04T21:36:37.017Z,5.90
2023-04-04T21:39:08.702Z,5.90
2023-04-04T21:41:38.156Z,5.90
2023-04-04T21:44:07.698Z,5.90
2023-04-04T21:46:37.104Z,5.90
2023-04-04T21:49:05.920Z,5.90
2023-04-04T21:51:34.345Z,5.90
2023-04-04T21:54:03.024Z,5.90
2023-04-04T21:56:32.310Z,5.90
2023-04-04T21:59:02.636Z,5.80
2023-04-04T22:01:31.534Z,5.80
2023-04-04T22:04:00.069Z,5.70
2023-04-04T22:06:28.892Z,5.70
2023-04-04T22:08:58.179Z,5.70
2023-04-04T22:11:27.214Z,5.70
2023-04-04T22:14:03.986Z,5.70
2023-04-04T22:16:36.893Z,5.70
2023-04-04T22:19:05.305Z,5.80
2023-04-04T22:21:36.566Z,5.80
2023-04-04T22:24:06.250Z,5.80
2023-04-04T22:26:34.569Z,5.70
2023-04-04T22:29:04.435Z,5.70
2023-04-04T22:31:35.012Z,5.80
2023-04-04T22:34:03.977Z,5.80
2023-04-04T22:36:34.260Z,5.80
2023-04-04T22:39:02.807Z,5.80
2023-04-04T22:41:31.200Z,5.80
2023-04-04T22:43:59.108Z,5.80
2023-04-04T22:46:28.877Z,5.80
2023-04-04T22:49:06.390Z,5.80
2023-04-04T22:51:42.904Z,5.80
2023-04-04T22:54:12.928Z,5.80
2023-04-04T22:56:41.392Z,5.70
2023-04-04T22:59:09.334Z,5.70
2023-04-04T23:01:37.268Z,5.60
2023-04-04T23:04:06.776Z,5.60
2023-04-04T23:06:35.830Z,5.60
2023-04-04T23:09:04.092Z,5.60
2023-04-04T23:11:32.160Z,5.50
2023-04-04T23:14:00.352Z,5.50
2023-04-04T23:16:28.990Z,5.50
2023-04-04T23:18:57.052Z,5.40
2023-04-04T23:21:28.780Z,5.40
2023-04-04T23:23:57.596Z,5.40
2023-04-04T23:26:25.475Z,5.30
2023-04-04T23:28:53.825Z,5.30
2023-04-04T23:31:21.841Z,5.30
2023-04-04T23:33:49.971Z,5.20
2023-04-04T23:36:17.968Z,5.10
2023-04-04T23:38:47.857Z,5.10
2023-04-04T23:41:16.159Z,5.10
2023-04-04T23:43:44.102Z,5.00
2023-04-04T23:46:14.425Z,4.90
2023-04-04T23:48:42.798Z,4.80
2023-04-04T23:51:10.888Z,4.70
2023-04-04T23:53:39.028Z,4.60
2023-04-04T23:56:08.974Z,4.50
2023-04-04T23:58:39.166Z,4.40
